createdAt,value
2022-08-09T00:00:11.895Z,7.07
2022-08-09T00:02:49.064Z,10.45
2022-08-09T00:06:17.390Z,7.28
2022-08-09T00:08:10.135Z,6.43
2022-08-09T00:10:40.951Z,7.43
2022-08-09T00:13:17.050Z,7.32
2022-08-09T00:16:00.111Z,7.63
2022-08-09T00:18:35.504Z,7.63
2022-08-09T00:21:05.013Z,9.10
2022-08-09T00:23:56.194Z,7.13
2022-08-09T00:26:19.513Z,7.00
2022-08-09T00:28:57.172Z,8.70
2022-08-09T00:31:58.544Z,8.43
2022-08-09T00:34:22.612Z,8.02
2022-08-09T00:36:53.036Z,7.53
2022-08-09T00:40:13.567Z,7.32
2022-08-09T00:44:19.578Z,8.60
2022-08-09T00:44:54.474Z,7.05
2022-08-09T00:47:25.263Z,6.70
2022-08-09T00:49:54.875Z,7.53
2022-08-09T00:52:29.142Z,8.35
2022-08-09T00:55:01.208Z,8.05
2022-08-09T00:57:34.354Z,9.80
2022-08-09T01:00:21.859Z,6.13
2022-08-09T01:03:05.291Z,8.43
2022-08-09T01:05:53.513Z,8.40
2022-08-09T01:08:27.478Z,7.65
2022-08-09T01:11:15.418Z,7.10
2022-08-09T01:13:59.991Z,9.27
2022-08-09T01:16:47.377Z,7.13
2022-08-09T01:20:01.746Z,7.28
2022-08-09T01:22:32.626Z,8.73
2022-08-09T01:25:12.326Z,9.52
2022-08-09T01:27:39.445Z,8.05
2022-08-09T01:30:08.404Z,7.97
2022-08-09T01:32:55.789Z,7.30
2022-08-09T01:35:38.389Z,9.32
2022-08-09T01:38:15.289Z,10.05
2022-08-09T01:40:52.818Z,8.18
2022-08-09T01:43:41.985Z,7.53
2022-08-09T01:46:34.281Z,8.35
2022-08-09T01:49:10.509Z,8.60
2022-08-09T01:51:44.659Z,8.15
2022-08-09T01:54:26.051Z,8.85
2022-08-09T01:56:53.542Z,9.25
2022-08-09T01:59:23.154Z,7.53
2022-08-09T02:02:01.331Z,9.63
2022-08-09T02:04:29.902Z,8.80
2022-08-09T02:08:34.774Z,6.93
2022-08-09T02:10:17.580Z,7.03
2022-08-09T02:12:45.565Z,8.38
2022-08-09T02:15:16.815Z,9.60
2022-08-09T02:18:00.856Z,9.63
2022-08-09T02:20:38.405Z,9.13
2022-08-09T02:23:43.231Z,6.95
2022-08-09T02:26:25.220Z,6.55
2022-08-09T02:29:03.182Z,8.55
2022-08-09T02:31:34.030Z,7.43
2022-08-09T02:34:13.595Z,7.57
2022-08-09T02:36:54.068Z,8.73
2022-08-09T02:39:33.443Z,7.35
2022-08-09T02:42:06.836Z,8.27
2022-08-09T02:44:36.387Z,8.73
2022-08-09T02:47:08.739Z,9.65
2022-08-09T02:49:41.307Z,7.32
2022-08-09T02:52:10.775Z,7.45
2022-08-09T02:54:51.253Z,7.93
2022-08-09T02:57:23.164Z,8.25
2022-08-09T03:00:21.194Z,9.43
2022-08-09T03:02:58.382Z,9.13
2022-08-09T03:05:28.283Z,7.93
2022-08-09T03:07:55.602Z,8.18
2022-08-09T03:10:23.020Z,9.52
2022-08-09T03:12:52.204Z,7.80
2022-08-09T03:15:20.796Z,7.30
2022-08-09T03:17:53.803Z,8.50
2022-08-09T03:20:24.908Z,7.68
2022-08-09T03:22:56.925Z,7.53
2022-08-09T03:25:57.749Z,8.93
2022-08-09T03:28:12.114Z,9.23
2022-08-09T03:30:38.906Z,8.07
2022-08-09T03:33:13.347Z,7.90
2022-08-09T03:36:12.584Z,9.30
2022-08-09T03:38:41.786Z,8.52
2022-08-09T03:41:15.490Z,9.30
2022-08-09T03:44:03.573Z,10.00
2022-08-09T03:46:31.461Z,9.57
2022-08-09T03:48:59.325Z,10.07
2022-08-09T03:51:57.642Z,9.30
2022-08-09T03:54:18.288Z,9.52
2022-08-09T03:56:57.999Z,10.70
2022-08-09T03:59:27.456Z,8.55
2022-08-09T04:02:09.916Z,9.50
2022-08-09T04:04:38.884Z,9.40
2022-08-09T04:07:06.091Z,9.68
2022-08-09T04:09:42.136Z,9.15
2022-08-09T04:15:01.873Z,10.27
2022-08-09T04:17:29.932Z,9.60
2022-08-09T04:19:58.801Z,9.45
2022-08-09T04:22:29.883Z,8.35
2022-08-09T04:24:58.947Z,9.57
2022-08-09T04:27:25.939Z,9.52
2022-08-09T04:29:56.188Z,8.73
2022-08-09T04:32:31.350Z,8.85
2022-08-09T04:35:01.310Z,8.65
2022-08-09T04:37:42.193Z,10.05
2022-08-09T04:40:19.383Z,9.40
2022-08-09T04:42:56.848Z,10.07
2022-08-09T04:45:23.992Z,9.57
2022-08-09T04:48:00.243Z,8.95
2022-08-09T04:50:31.732Z,8.88
2022-08-09T04:53:12.965Z,8.88
2022-08-09T04:55:58.367Z,13.65
2022-08-09T04:58:27.548Z,10.52
2022-08-09T05:00:55.447Z,9.27
2022-08-09T05:03:40.498Z,9.10
2022-08-09T05:06:11.321Z,9.75
2022-08-09T05:08:38.319Z,9.27
2022-08-09T05:11:07.543Z,10.52
2022-08-09T05:13:38.878Z,9.93
2022-08-09T05:16:07.821Z,9.48
2022-08-09T05:18:39.767Z,10.93
2022-08-09T05:21:24.508Z,9.30
2022-08-09T05:24:00.423Z,9.60
2022-08-09T05:26:45.693Z,8.75
2022-08-09T05:29:21.497Z,9.85
2022-08-09T05:31:57.026Z,11.52
2022-08-09T05:34:31.358Z,10.73
2022-08-09T05:37:06.410Z,12.50
2022-08-09T05:39:43.303Z,12.77
2022-08-09T05:42:20.592Z,9.40
2022-08-09T05:44:52.656Z,13.05
2022-08-09T05:47:23.786Z,10.80
2022-08-09T05:50:24.442Z,10.70
2022-08-09T05:52:42.207Z,9.55
2022-08-09T05:55:09.779Z,10.05
2022-08-09T05:57:55.877Z,10.65
2022-08-09T06:00:25.729Z,11.25
2022-08-09T06:02:54.194Z,13.73
2022-08-09T06:05:30.766Z,10.70
2022-08-09T06:08:11.464Z,10.30
2022-08-09T06:10:38.720Z,11.05
2022-08-09T06:13:12.466Z,11.70
2022-08-09T06:15:47.228Z,10.23
2022-08-09T06:18:24.008Z,9.70
2022-08-09T06:20:57.369Z,10.32
2022-08-09T06:23:58.050Z,14.82
2022-08-09T06:26:13.917Z,12.40
2022-08-09T06:28:43.229Z,11.57
2022-08-09T06:31:10.694Z,13.73
2022-08-09T06:33:41.615Z,15.80
2022-08-09T06:36:13.783Z,14.65
2022-08-09T06:38:47.318Z,14.40
2022-08-09T06:41:19.082Z,20.88
2022-08-09T06:43:46.965Z,16.05
2022-08-09T06:46:39.835Z,17.17
2022-08-09T06:49:01.433Z,15.27
2022-08-09T06:51:28.386Z,16.38
2022-08-09T06:53:55.679Z,15.88
2022-08-09T06:56:30.804Z,18.85
2022-08-09T07:00:48.647Z,18.20
2022-08-09T07:01:54.064Z,19.75
2022-08-09T07:04:24.913Z,17.60
2022-08-09T07:07:00.141Z,18.92
2022-08-09T07:09:56.123Z,18.55
2022-08-09T07:12:18.282Z,18.60
2022-08-09T07:14:51.114Z,16.77
2022-08-09T07:17:21.508Z,16.60
2022-08-09T07:19:50.633Z,20.50
2022-08-09T07:22:18.389Z,19.23
2022-08-09T07:24:49.386Z,24.23
2022-08-09T07:27:26.695Z,18.50
2022-08-09T07:30:01.418Z,18.08
2022-08-09T07:32:32.189Z,17.80
2022-08-09T07:35:02.802Z,20.00
2022-08-09T07:37:42.943Z,18.65
2022-08-09T07:40:17.128Z,16.27
2022-08-09T07:43:03.038Z,17.40
2022-08-09T07:45:37.901Z,18.13
2022-08-09T07:48:06.827Z,18.05
2022-08-09T07:50:36.542Z,19.10
2022-08-09T07:53:04.739Z,19.50
2022-08-09T07:55:41.480Z,18.73
2022-08-09T07:58:21.720Z,15.55
2022-08-09T08:00:58.744Z,19.33
2022-08-09T08:03:37.020Z,19.23
2022-08-09T08:06:04.975Z,18.55
2022-08-09T08:08:59.642Z,19.13
2022-08-09T08:12:10.983Z,22.17
2022-08-09T08:14:06.556Z,21.02
2022-08-09T08:16:34.605Z,22.98
2022-08-09T08:19:03.010Z,22.15
2022-08-09T08:21:30.674Z,18.63
2022-08-09T08:23:57.634Z,18.55
2022-08-09T08:26:54.972Z,17.98
2022-08-09T08:29:20.013Z,17.38
2022-08-09T08:32:04.498Z,14.20
2022-08-09T08:34:39.270Z,18.65
2022-08-09T08:37:08.267Z,14.80
2022-08-09T08:39:44.386Z,12.77
2022-08-09T08:42:11.501Z,13.50
2022-08-09T08:44:39.585Z,11.70
2022-08-09T08:47:12.255Z,13.27
2022-08-09T08:49:48.483Z,12.05
2022-08-09T08:52:53.019Z,10.23
2022-08-09T08:55:08.270Z,9.70
2022-08-09T08:57:37.214Z,9.82
2022-08-09T09:00:12.719Z,8.05
2022-08-09T09:02:52.239Z,8.00
2022-08-09T09:05:57.790Z,8.10
2022-08-09T09:08:29.765Z,10.35
2022-08-09T09:11:01.893Z,8.70
2022-08-09T09:13:41.684Z,8.35
2022-08-09T09:16:16.860Z,8.10
2022-08-09T09:18:48.756Z,8.90
2022-08-09T09:21:26.019Z,8.75
2022-08-09T09:23:58.103Z,7.03
2022-08-09T09:28:53.271Z,6.20
2022-08-09T09:32:14.920Z,6.43
2022-08-09T09:34:18.538Z,6.88
2022-08-09T09:36:51.078Z,5.82
2022-08-09T09:39:23.464Z,6.43
2022-08-09T09:41:54.307Z,6.82
2022-08-09T09:44:32.712Z,7.03
2022-08-09T09:47:16.459Z,8.10
2022-08-09T09:50:14.457Z,7.28
2022-08-09T09:52:53.600Z,7.05
2022-08-09T09:55:29.223Z,6.72
2022-08-09T09:58:15.748Z,7.18
2022-08-09T10:00:54.344Z,6.30
2022-08-09T10:03:43.072Z,7.00
2022-08-09T10:06:11.728Z,7.95
2022-08-09T10:08:43.315Z,7.30
2022-08-09T10:12:12.081Z,8.10
2022-08-09T10:14:31.744Z,9.90
2022-08-09T10:17:38.916Z,9.00
2022-08-09T10:19:47.210Z,7.63
2022-08-09T10:22:30.852Z,7.07
2022-08-09T10:24:59.884Z,6.60
2022-08-09T10:27:38.634Z,8.60
2022-08-09T10:32:56.029Z,7.32
2022-08-09T10:35:23.178Z,9.02
2022-08-09T10:37:53.316Z,6.57
2022-08-09T10:40:33.723Z,7.10
2022-08-09T10:43:02.210Z,7.18
2022-08-09T10:45:31.887Z,7.10
2022-08-09T10:48:19.282Z,5.32
2022-08-09T10:51:15.009Z,6.45
2022-08-09T10:53:54.286Z,5.63
2022-08-09T10:56:27.934Z,6.53
2022-08-09T10:59:01.185Z,7.18
2022-08-09T11:03:15.881Z,6.35
2022-08-09T11:04:30.260Z,7.38
2022-08-09T11:06:59.674Z,7.78
2022-08-09T11:09:45.282Z,6.28
2022-08-09T11:12:17.314Z,8.95
2022-08-09T11:14:49.042Z,7.00
2022-08-09T11:17:19.404Z,6.43
2022-08-09T11:20:07.969Z,8.63
2022-08-09T11:22:45.262Z,6.40
2022-08-09T11:25:47.805Z,7.18
2022-08-09T11:28:55.869Z,7.82
2022-08-09T11:31:50.270Z,6.03
2022-08-09T11:34:44.435Z,7.00
2022-08-09T11:37:17.894Z,6.90
2022-08-09T11:40:23.586Z,7.60
2022-08-09T11:42:55.282Z,6.30
2022-08-09T11:45:43.186Z,6.95
2022-08-09T11:48:24.886Z,5.78
2022-08-09T11:51:38.215Z,7.05
2022-08-09T11:54:01.074Z,6.32
2022-08-09T11:56:47.507Z,7.07
2022-08-09T11:59:30.605Z,6.25
2022-08-09T12:02:17.644Z,7.88
2022-08-09T12:04:58.011Z,6.97
2022-08-09T12:07:41.413Z,5.85
2022-08-09T12:10:32.033Z,7.15
2022-08-09T12:12:58.010Z,7.90
2022-08-09T12:15:48.679Z,8.88
2022-08-09T12:18:29.820Z,9.07
2022-08-09T12:21:00.390Z,6.35
2022-08-09T12:26:25.474Z,8.77
2022-08-09T12:29:14.711Z,7.13
2022-08-09T12:32:02.762Z,9.20
2022-08-09T12:34:37.604Z,7.28
2022-08-09T12:37:09.830Z,9.57
2022-08-09T12:40:24.424Z,6.78
2022-08-09T12:42:51.968Z,6.40
2022-08-09T12:45:34.931Z,6.32
2022-08-09T12:48:19.981Z,6.15
2022-08-09T12:50:56.743Z,8.40
2022-08-09T12:53:37.576Z,9.52
2022-08-09T12:56:36.987Z,9.35
2022-08-09T12:59:15.705Z,6.72
2022-08-09T13:01:49.096Z,8.07
2022-08-09T13:04:36.578Z,8.50
2022-08-09T13:07:16.509Z,8.43
2022-08-09T13:09:52.911Z,5.75
2022-08-09T13:12:23.326Z,6.82
2022-08-09T13:14:54.048Z,7.00
2022-08-09T13:17:44.036Z,8.38
2022-08-09T13:20:16.262Z,6.55
2022-08-09T13:23:05.312Z,6.15
2022-08-09T13:25:42.448Z,5.88
2022-08-09T13:28:24.533Z,6.63
2022-08-09T13:32:13.456Z,7.93
2022-08-09T13:33:56.788Z,8.98
2022-08-09T13:36:40.726Z,6.82
2022-08-09T13:41:55.275Z,9.15
2022-08-09T13:42:12.538Z,6.60
2022-08-09T13:44:43.729Z,5.90
2022-08-09T13:50:01.029Z,6.70
2022-08-09T13:52:29.575Z,6.05
2022-08-09T13:54:59.047Z,5.13
2022-08-09T13:57:37.132Z,6.97
2022-08-09T14:00:17.512Z,6.25
2022-08-09T14:03:16.779Z,7.03
2022-08-09T14:05:57.120Z,7.15
2022-08-09T14:08:24.741Z,8.35
2022-08-09T14:10:54.173Z,5.03
2022-08-09T14:13:28.126Z,8.40
2022-08-09T14:16:12.438Z,8.85
2022-08-09T14:18:45.061Z,6.60
2022-08-09T14:21:17.926Z,6.72
2022-08-09T14:23:54.656Z,7.88
2022-08-09T14:26:33.516Z,7.20
2022-08-09T14:30:15.192Z,6.03
2022-08-09T14:31:56.658Z,8.30
2022-08-09T14:34:31.112Z,6.68
2022-08-09T14:37:06.083Z,8.13
2022-08-09T14:39:40.032Z,9.90
2022-08-09T14:42:30.468Z,7.88
2022-08-09T14:45:01.518Z,6.70
2022-08-09T14:47:56.871Z,7.60
2022-08-09T14:50:27.130Z,8.93
2022-08-09T14:52:54.034Z,8.45
2022-08-09T14:55:21.582Z,5.93
2022-08-09T14:57:49.356Z,6.25
2022-08-09T15:00:17.420Z,6.95
2022-08-09T15:02:47.215Z,7.85
2022-08-09T15:05:16.010Z,7.35
2022-08-09T15:07:45.232Z,7.30
2022-08-09T15:10:14.577Z,7.43
2022-08-09T15:12:44.806Z,8.00
2022-08-09T15:15:13.053Z,6.38
2022-08-09T15:17:42.667Z,7.35
2022-08-09T15:20:15.273Z,7.10
2022-08-09T15:22:46.656Z,6.40
2022-08-09T15:25:15.128Z,6.03
2022-08-09T15:28:02.483Z,5.10
2022-08-09T15:30:58.790Z,5.88
2022-08-09T15:33:28.073Z,7.00
2022-08-09T15:36:05.742Z,5.43
2022-08-09T15:38:33.941Z,6.70
2022-08-09T15:41:02.118Z,5.65
2022-08-09T15:43:38.391Z,6.03
2022-08-09T15:46:28.145Z,6.80
2022-08-09T15:49:07.894Z,5.95
2022-08-09T15:52:03.214Z,6.63
2022-08-09T15:54:33.514Z,6.53
2022-08-09T15:57:09.641Z,8.55
2022-08-09T15:59:36.929Z,6.55
2022-08-09T16:02:05.592Z,7.63
2022-08-09T16:04:34.395Z,8.27
2022-08-09T16:07:01.887Z,6.85
2022-08-09T16:09:32.557Z,7.18
2022-08-09T16:12:15.899Z,6.45
2022-08-09T16:14:42.802Z,11.00
2022-08-09T16:17:12.830Z,12.38
2022-08-09T16:19:49.289Z,13.38
2022-08-09T16:22:30.824Z,11.75
2022-08-09T16:24:59.406Z,10.50
2022-08-09T16:27:26.637Z,11.30
2022-08-09T16:30:00.802Z,11.07
2022-08-09T16:32:53.459Z,6.68
2022-08-09T16:35:56.471Z,6.32
2022-08-09T16:38:08.949Z,6.45
2022-08-09T16:40:40.535Z,7.05
2022-08-09T16:43:08.347Z,7.78
2022-08-09T16:45:35.203Z,8.10
2022-08-09T16:48:38.161Z,6.25
2022-08-09T16:50:59.060Z,7.53
2022-08-09T16:53:35.129Z,7.22
2022-08-09T16:56:07.539Z,6.43
2022-08-09T16:58:39.841Z,5.88
2022-08-09T17:01:09.773Z,5.05
2022-08-09T17:03:37.369Z,5.85
2022-08-09T17:06:28.569Z,5.22
2022-08-09T17:09:00.184Z,8.52
2022-08-09T17:11:40.167Z,6.37
2022-08-09T17:14:26.117Z,6.60
2022-08-09T17:17:01.616Z,5.63
2022-08-09T17:19:47.329Z,5.30
2022-08-09T17:22:24.687Z,7.38
2022-08-09T17:25:03.295Z,5.25
2022-08-09T17:27:32.435Z,7.47
2022-08-09T17:29:59.319Z,4.85
2022-08-09T17:32:35.213Z,5.40
2022-08-09T17:35:11.660Z,5.50
2022-08-09T17:38:11.799Z,5.10
2022-08-09T17:40:32.716Z,5.15
2022-08-09T17:43:03.222Z,9.13
2022-08-09T17:46:03.092Z,6.25
2022-08-09T17:48:39.003Z,7.80
2022-08-09T17:51:17.902Z,5.28
2022-08-09T17:53:53.010Z,5.93
2022-08-09T17:56:27.514Z,6.00
2022-08-09T17:59:03.253Z,5.30
2022-08-09T18:01:40.964Z,6.32
2022-08-09T18:04:18.870Z,5.70
2022-08-09T18:06:55.252Z,5.60
2022-08-09T18:09:25.115Z,8.45
2022-08-09T18:12:05.872Z,7.55
2022-08-09T18:14:49.910Z,6.43
2022-08-09T18:17:27.708Z,5.45
2022-08-09T18:20:59.519Z,7.32
2022-08-09T18:22:55.669Z,7.35
2022-08-09T18:25:50.962Z,6.68
2022-08-09T18:28:21.708Z,5.60
2022-08-09T18:30:57.872Z,5.75
2022-08-09T18:33:24.886Z,6.95
2022-08-09T18:36:00.076Z,7.32
2022-08-09T18:38:27.748Z,7.72
2022-08-09T18:40:55.634Z,12.63
2022-08-09T18:43:23.337Z,14.45
2022-08-09T18:46:50.225Z,14.95
2022-08-09T18:48:37.420Z,13.80
2022-08-09T18:51:04.592Z,13.57
2022-08-09T18:53:59.880Z,10.43
2022-08-09T18:56:27.858Z,10.95
2022-08-09T18:58:58.725Z,8.55
2022-08-09T19:01:28.323Z,6.93
2022-08-09T19:06:38.656Z,6.55
2022-08-09T19:09:06.648Z,6.25
2022-08-09T19:11:37.829Z,7.93
2022-08-09T19:14:08.988Z,7.13
2022-08-09T19:16:37.999Z,6.10
2022-08-09T19:19:23.761Z,7.53
2022-08-09T19:22:06.899Z,7.95
2022-08-09T19:24:38.643Z,6.83
2022-08-09T19:27:22.343Z,7.60
2022-08-09T19:30:21.469Z,7.75
2022-08-09T19:32:36.732Z,6.85
2022-08-09T19:35:04.365Z,5.75
2022-08-09T19:37:41.013Z,5.70
2022-08-09T19:40:19.261Z,7.32
2022-08-09T19:42:49.532Z,7.85
2022-08-09T19:45:16.862Z,5.68
2022-08-09T19:47:44.613Z,8.90
2022-08-09T19:50:50.144Z,5.05
2022-08-09T19:52:59.677Z,7.25
2022-08-09T19:56:03.502Z,6.75
2022-08-09T19:58:18.153Z,6.53
2022-08-09T20:00:57.675Z,6.70
2022-08-09T20:04:10.450Z,6.68
2022-08-09T20:06:23.270Z,6.65
2022-08-09T20:08:52.475Z,6.32
2022-08-09T20:11:26.092Z,5.78
2022-08-09T20:13:54.721Z,7.77
2022-08-09T20:16:38.492Z,6.65
2022-08-09T20:19:47.766Z,5.45
2022-08-09T20:21:59.985Z,7.30
2022-08-09T20:24:31.906Z,7.13
2022-08-09T20:27:02.699Z,6.95
2022-08-09T20:29:37.451Z,6.15
2022-08-09T20:32:28.648Z,7.35
2022-08-09T20:34:56.261Z,8.35
2022-08-09T20:37:23.693Z,7.25
2022-08-09T20:40:16.079Z,6.68
2022-08-09T20:42:37.710Z,6.63
2022-08-09T20:46:00.403Z,6.47
2022-08-09T20:47:52.715Z,8.00
2022-08-09T20:50:47.901Z,9.27
2022-08-09T20:53:18.558Z,8.32
2022-08-09T20:56:01.064Z,5.90
2022-08-09T20:58:32.684Z,8.05
2022-08-09T21:01:32.698Z,7.22
2022-08-09T21:05:49.871Z,6.53
2022-08-09T21:06:41.273Z,6.25
2022-08-09T21:09:13.932Z,9.02
2022-08-09T21:14:31.136Z,7.75
2022-08-09T21:17:00.053Z,7.18
2022-08-09T21:20:18.436Z,7.13
2022-08-09T21:22:35.716Z,9.98
2022-08-09T21:25:20.789Z,7.93
2022-08-09T21:28:01.490Z,7.53
2022-08-09T21:30:28.532Z,10.40
2022-08-09T21:32:57.189Z,9.65
2022-08-09T21:35:24.265Z,6.45
2022-08-09T21:37:58.987Z,7.97
2022-08-09T21:40:30.187Z,6.50
2022-08-09T21:42:59.052Z,7.00
2022-08-09T21:45:26.471Z,7.97
2022-08-09T21:47:53.774Z,6.13
2022-08-09T21:50:35.103Z,6.15
2022-08-09T21:53:06.886Z,7.25
2022-08-09T21:55:46.929Z,7.20
2022-08-09T21:58:14.161Z,7.22
2022-08-09T22:00:41.148Z,8.00
2022-08-09T22:03:12.514Z,7.13
2022-08-09T22:05:52.160Z,7.53
2022-08-09T22:08:19.455Z,7.85
2022-08-09T22:11:04.820Z,8.40
2022-08-09T22:13:38.939Z,9.48
2022-08-09T22:16:10.582Z,8.13
2022-08-09T22:18:52.164Z,7.00
2022-08-09T22:21:44.769Z,8.32
2022-08-09T22:24:16.991Z,6.68
2022-08-09T22:26:51.691Z,7.38
2022-08-09T22:29:19.180Z,7.30
2022-08-09T22:31:56.370Z,8.57
2022-08-09T22:34:27.537Z,7.70
2022-08-09T22:36:57.858Z,8.07
2022-08-09T22:39:56.387Z,9.18
2022-08-09T22:42:16.264Z,7.30
2022-08-09T22:45:00.574Z,7.72
2022-08-09T22:48:18.329Z,5.65
2022-08-09T22:50:23.583Z,8.57
2022-08-09T22:52:57.634Z,11.00
2022-08-09T22:55:27.180Z,11.18
2022-08-09T22:58:06.795Z,9.63
2022-08-09T23:00:33.661Z,10.95
2022-08-09T23:03:04.251Z,9.27
2022-08-09T23:05:39.790Z,8.60
2022-08-09T23:08:31.447Z,7.13
2022-08-09T23:10:58.556Z,7.75
2022-08-09T23:13:25.409Z,9.00
2022-08-09T23:16:03.018Z,8.82
2022-08-09T23:18:31.079Z,12.07
2022-08-09T23:20:57.933Z,9.30
2022-08-09T23:23:24.846Z,10.88
2022-08-09T23:25:51.849Z,8.85
2022-08-09T23:28:18.751Z,9.10
2022-08-09T23:30:51.175Z,8.15
2022-08-09T23:33:21.980Z,7.90
2022-08-09T23:36:04.731Z,8.75
2022-08-09T23:38:33.617Z,8.63
2022-08-09T23:41:01.570Z,10.60
2022-08-09T23:43:28.402Z,8.93
2022-08-09T23:45:55.204Z,9.07
2022-08-09T23:48:22.152Z,7.80
2022-08-09T23:50:49.039Z,9.50
2022-08-09T23:53:15.948Z,8.02
2022-08-09T23:55:49.311Z,10.48
2022-08-09T23:58:25.944Z,10.25
